Time;durP1;ratioP1;P1;durP2;ratioP2;P2;SDS_P1;SDS_P2;PMS_P1;PMS_P2;Temp;Humidity;BMP_temperature;BMP_pressure;BME280_temperature;BME280_humidity;BME280_pressure;Samples;Min_cycle;Max_cycle;Signal;HPM_P1;HPM_P2
2022/09/10 00:00:45;;;;;;;;;;;;;;;14.06;88.75;96350.91;5047417;28;19985;-80
2022/09/10 00:03:12;;;;;;;;;;;;;;;14.06;87.71;96347.47;5043340;28;20475;-80
2022/09/10 00:05:39;;;;;;;;;;;;;;;14.04;87.74;96350.34;5044986;28;19956;-80
2022/09/10 00:08:06;;;;;;;;;;;;;;;14.02;87.09;96347.94;5048220;28;20319;-80
2022/09/10 00:10:36;;;;;;;;;;;;;;;14.02;87.93;96342.66;5044986;28;19955;-80
2022/09/10 00:13:02;;;;;;;;;;;;;;;14.02;87.53;96337.41;5047195;28;20419;-81
2022/09/10 00:15:28;;;;;;;;;;;;;;;14.01;87.26;96338.44;5044282;28;20051;-80
2022/09/10 00:17:54;;;;;;;;;;;;;;;14.04;88.09;96336.38;5052324;28;20384;-80
2022/09/10 00:20:20;;;;;;;;;;;;;;;14.01;88.19;96335.03;5040385;28;20005;-81
2022/09/10 00:22:47;;;;;;;;;;;;;;;13.99;88.52;96350.28;5046307;28;20054;-80
2022/09/10 00:25:14;;;;;;;;;;;;;;;13.96;88.73;96342.84;5056165;28;19960;-80
2022/09/10 00:27:40;;;;;;;;;;;;;;;13.93;88.89;96349.41;5043133;28;19981;-80
2022/09/10 00:30:06;;;;;;;;;;;;;;;13.93;89.21;96343.34;5054633;28;20414;-80
2022/09/10 00:32:33;;;;;;;;;;;;;;;13.92;88.79;96349.63;5046209;28;19967;-80
2022/09/10 00:35:00;;;;;;;;;;;;;;;13.93;88.83;96353.88;5046996;28;19956;-80
2022/09/10 00:37:26;;;;;;;;;;;;;;;13.92;89.21;96345.19;5044467;28;19968;-80
2022/09/10 00:39:52;;;;;;;;;;;;;;;13.94;89.69;96345.75;5043274;28;20398;-80
2022/09/10 00:42:18;;;;;;;;;;;;;;;13.95;89.21;96343.91;5047980;28;19968;-80
2022/09/10 00:44:44;;;;;;;;;;;;;;;13.94;89.11;96342.28;5047048;28;20005;-80
2022/09/10 00:47:22;;;;;;;;;;;;;;;13.94;88.86;96343.09;5043120;28;20047;-80
2022/09/10 00:49:50;;;;;;;;;;;;;;;13.95;89.13;96338.63;5044052;28;19955;-80
2022/09/10 00:52:16;;;;;;;;;;;;;;;13.93;89.47;96340.72;5043621;28;19962;-80
2022/09/10 00:54:43;;;;;;;;;;;;;;;13.94;89.12;96334.38;5044874;28;19973;-80
2022/09/10 00:57:12;;;;;;;;;;;;;;;13.95;89.06;96334.16;5045572;28;20441;-80
2022/09/10 00:59:42;;;;;;;;;;;;;;;13.96;89.41;96337.56;5038622;28;20031;-80
2022/09/10 01:02:08;;;;;;;;;;;;;;;13.94;88.89;96340.47;5051625;28;19960;-81
2022/09/10 01:04:34;;;;;;;;;;;;;;;13.95;89.61;96334.16;5047038;28;19965;-80
2022/09/10 01:07:00;;;;;;;;;;;;;;;13.95;88.92;96330.72;5044790;28;19962;-81
2022/09/10 01:09:27;;;;;;;;;;;;;;;13.97;89.21;96345.25;5043814;28;20421;-80
2022/09/10 01:12:06;;;;;;;;;;;;;;;13.99;89.52;96345.00;5047080;28;19958;-81
2022/09/10 01:15:01;;;;;;;;;;;;;;;13.99;90.46;96339.75;5047342;28;20308;-81
2022/09/10 01:17:36;;;;;;;;;;;;;;;13.98;90.65;96344.22;5028084;28;19969;-80
2022/09/10 01:20:14;;;;;;;;;;;;;;;13.99;90.74;96347.66;5043914;28;19964;-80
2022/09/10 01:22:56;;;;;;;;;;;;;;;13.98;90.93;96346.88;5039976;28;19962;-80
2022/09/10 01:25:33;;;;;;;;;;;;;;;13.98;91.17;96349.50;5042417;28;19961;-80
2022/09/10 01:28:03;;;;;;;;;;;;;;;13.97;91.71;96355.00;5041602;28;20434;-80
2022/09/10 01:30:34;;;;;;;;;;;;;;;13.95;91.09;96342.06;5027892;28;19959;-80
2022/09/10 01:33:19;;;;;;;;;;;;;;;13.96;91.47;96348.13;5043668;28;20399;-80
2022/09/10 01:35:48;;;;;;;;;;;;;;;13.97;91.32;96347.88;5048565;28;20407;-80
2022/09/10 01:38:25;;;;;;;;;;;;;;;13.96;91.86;96346.31;5047876;28;19966;-80
2022/09/10 01:40:54;;;;;;;;;;;;;;;13.98;92.05;96346.88;5043354;28;19954;-79
2022/09/10 01:43:21;;;;;;;;;;;;;;;13.98;91.93;96344.22;5046186;28;19960;-79
2022/09/10 01:45:47;;;;;;;;;;;;;;;13.96;92.66;96330.50;5056025;28;19961;-79
2022/09/10 01:48:24;;;;;;;;;;;;;;;13.96;92.84;96341.03;5041913;28;19960;-79
2022/09/10 01:51:09;;;;;;;;;;;;;;;13.96;92.98;96346.31;5045190;28;20335;-79
2022/09/10 01:53:42;;;;;;;;;;;;;;;13.96;94.56;96341.03;5033660;28;19951;-79
2022/09/10 01:56:11;;;;;;;;;;;;;;;13.95;93.53;96338.63;5059390;28;19957;-78
2022/09/10 01:58:39;;;;;;;;;;;;;;;13.92;93.78;96334.66;5043617;28;19966;-79
2022/09/10 02:01:18;;;;;;;;;;;;;;;13.90;93.95;96335.91;5042136;28;19957;-79
2022/09/10 02:03:46;;;;;;;;;;;;;;;13.89;93.11;96324.56;5043673;28;20335;-79
2022/09/10 02:06:15;;;;;;;;;;;;;;;13.89;92.92;96327.19;5043529;28;19954;-79
2022/09/10 02:08:43;;;;;;;;;;;;;;;13.90;93.08;96325.34;5046610;28;19961;-79
2022/09/10 02:11:10;;;;;;;;;;;;;;;13.90;93.12;96320.09;5037257;28;19960;-79
2022/09/10 02:13:36;;;;;;;;;;;;;;;13.89;93.71;96324.56;5044523;28;19954;-80
2022/09/10 02:16:05;;;;;;;;;;;;;;;13.90;94.43;96325.34;5042947;28;19963;-80
2022/09/10 02:18:34;;;;;;;;;;;;;;;13.93;94.63;96322.25;5043206;28;19973;-80
2022/09/10 02:21:02;;;;;;;;;;;;;;;13.95;94.22;96322.81;5049586;28;19969;-80
2022/09/10 02:23:31;;;;;;;;;;;;;;;13.97;94.13;96326.00;5033114;28;19961;-80
2022/09/10 02:25:57;;;;;;;;;;;;;;;13.97;94.26;96334.69;5047945;28;19960;-79
2022/09/10 02:28:23;;;;;;;;;;;;;;;13.97;93.95;96331.28;5038625;28;19983;-79
2022/09/10 02:30:49;;;;;;;;;;;;;;;13.94;95.29;96327.28;5039106;28;19966;-80
2022/09/10 02:33:15;;;;;;;;;;;;;;;13.94;94.18;96335.19;5044524;28;20003;-79
2022/09/10 02:35:42;;;;;;;;;;;;;;;13.95;95.58;96333.34;5047717;28;20002;-79
2022/09/10 02:38:08;;;;;;;;;;;;;;;13.92;94.89;96326.72;5040241;28;19970;-79
2022/09/10 02:40:34;;;;;;;;;;;;;;;13.93;94.61;96330.16;5041938;28;19955;-79
2022/09/10 02:43:00;;;;;;;;;;;;;;;13.94;94.47;96335.19;5043264;28;20054;-79
2022/09/10 02:45:26;;;;;;;;;;;;;;;13.92;94.54;96336.47;5048826;28;20289;-79
2022/09/10 02:47:53;;;;;;;;;;;;;;;13.91;95.31;96332.25;5042491;28;19967;-79
2022/09/10 02:50:19;;;;;;;;;;;;;;;13.88;95.12;96330.06;5038718;28;19962;-80
2022/09/10 02:52:45;;;;;;;;;;;;;;;13.85;95.40;96333.19;5049362;28;20029;-79
2022/09/10 02:55:11;;;;;;;;;;;;;;;13.83;95.73;96322.09;5047882;28;20009;-79
2022/09/10 02:57:38;;;;;;;;;;;;;;;13.79;95.21;96324.41;5044236;28;19970;-79
2022/09/10 03:00:05;;;;;;;;;;;;;;;13.78;95.76;96320.97;5038029;28;20438;-79
2022/09/10 03:02:31;;;;;;;;;;;;;;;13.79;95.02;96321.78;5049639;28;19969;-79
2022/09/10 03:04:57;;;;;;;;;;;;;;;13.78;94.83;96320.19;5043641;28;19972;-79
2022/09/10 03:07:23;;;;;;;;;;;;;;;13.72;94.71;96316.69;5052077;28;19955;-79
2022/09/10 03:09:49;;;;;;;;;;;;;;;13.69;94.93;96318.97;5038405;28;20061;-79
2022/09/10 03:12:15;;;;;;;;;;;;;;;13.67;95.80;96318.44;5048535;28;19964;-79
2022/09/10 03:14:41;;;;;;;;;;;;;;;13.64;96.28;96319.72;5049812;28;19966;-79
2022/09/10 03:17:08;;;;;;;;;;;;;;;13.65;96.51;96320.50;5037092;28;19965;-79
2022/09/10 03:19:35;;;;;;;;;;;;;;;13.66;96.89;96324.75;5041819;28;19959;-79
2022/09/10 03:22:01;;;;;;;;;;;;;;;13.70;96.88;96321.38;5049378;28;19958;-80
2022/09/10 03:24:27;;;;;;;;;;;;;;;13.73;96.66;96314.81;5043128;28;19963;-79
2022/09/10 03:26:53;;;;;;;;;;;;;;;13.73;96.54;96325.38;5038793;28;19991;-79
2022/09/10 03:29:21;;;;;;;;;;;;;;;13.75;96.49;96318.03;5041619;28;19972;-79
2022/09/10 03:31:50;;;;;;;;;;;;;;;13.76;96.36;96319.63;5060908;28;19962;-79
2022/09/10 03:34:16;;;;;;;;;;;;;;;13.75;96.57;96320.66;5058510;28;19979;-80
2022/09/10 03:36:42;;;;;;;;;;;;;;;13.74;97.11;96317.22;5047620;28;19956;-79
2022/09/10 03:39:08;;;;;;;;;;;;;;;13.70;96.61;96324.03;5043785;28;19977;-80
2022/09/10 03:41:34;;;;;;;;;;;;;;;13.68;97.81;96317.41;5045645;28;20056;-80
2022/09/10 03:44:00;;;;;;;;;;;;;;;13.67;97.43;96319.25;5052876;28;19971;-80
2022/09/10 03:46:26;;;;;;;;;;;;;;;13.67;97.62;96318.44;5044478;28;19954;-80
2022/09/10 03:48:52;;;;;;;;;;;;;;;13.66;97.06;96316.84;5054679;28;20434;-80
2022/09/10 03:51:18;;;;;;;;;;;;;;;13.66;96.80;96319.47;5051079;28;19968;-80
2022/09/10 03:53:44;;;;;;;;;;;;;;;13.66;96.95;96319.47;5026988;28;19960;-80
2022/09/10 03:56:10;;;;;;;;;;;;;;;13.64;96.45;96313.66;5048406;28;20022;-80
2022/09/10 03:58:36;;;;;;;;;;;;;;;13.60;97.09;96310.69;5045185;28;19972;-80
2022/09/10 04:01:02;;;;;;;;;;;;;;;13.56;97.19;96315.63;5043358;28;19963;-80
2022/09/10 04:03:28;;;;;;;;;;;;;;;13.56;96.83;96320.91;5046488;28;19966;-80
2022/09/10 04:05:54;;;;;;;;;;;;;;;13.56;96.59;96309.56;5050690;28;19963;-80
2022/09/10 04:08:20;;;;;;;;;;;;;;;13.56;97.33;96318.25;5050917;28;19970;-80
2022/09/10 04:10:47;;;;;;;;;;;;;;;13.56;96.70;96312.19;5042556;28;20303;-80
2022/09/10 04:13:13;;;;;;;;;;;;;;;13.56;96.86;96323.53;5044128;28;19966;-80
2022/09/10 04:15:39;;;;;;;;;;;;;;;13.56;96.58;96310.34;5048149;28;19959;-80
2022/09/10 04:18:05;;;;;;;;;;;;;;;13.57;95.98;96319.88;5046177;28;19969;-80
2022/09/10 04:20:32;;;;;;;;;;;;;;;13.57;95.83;96313.81;5044247;28;19952;-80
2022/09/10 04:22:59;;;;;;;;;;;;;;;13.55;97.38;96324.59;5046673;28;19956;-80
2022/09/10 04:25:25;;;;;;;;;;;;;;;13.49;96.43;96317.63;5043118;28;19961;-80
2022/09/10 04:27:51;;;;;;;;;;;;;;;13.48;97.03;96315.22;5050124;28;19985;-80
2022/09/10 04:30:17;;;;;;;;;;;;;;;13.46;96.83;96312.03;5047112;28;20381;-80
2022/09/10 04:32:44;;;;;;;;;;;;;;;13.44;97.04;96309.66;5045214;28;19960;-80
2022/09/10 04:35:10;;;;;;;;;;;;;;;13.44;97.34;96320.19;5042611;28;19970;-80
2022/09/10 04:37:36;;;;;;;;;;;;;;;13.46;97.95;96333.13;5045771;28;19978;-80
2022/09/10 04:40:02;;;;;;;;;;;;;;;13.47;97.71;96332.88;5045890;28;19961;-81
2022/09/10 04:42:30;;;;;;;;;;;;;;;13.48;98.50;96331.03;5050296;28;20441;-80
2022/09/10 04:44:56;;;;;;;;;;;;;;;13.48;98.24;96337.13;5041271;28;19957;-81
2022/09/10 04:47:22;;;;;;;;;;;;;;;13.50;98.99;96336.88;5043162;28;19960;-80
2022/09/10 04:49:48;;;;;;;;;;;;;;;13.51;98.18;96336.63;5051561;28;20012;-80
2022/09/10 04:52:16;;;;;;;;;;;;;;;13.52;99.26;96335.63;5047874;28;19963;-81
2022/09/10 04:54:41;;;;;;;;;;;;;;;13.54;99.16;96346.72;5041319;28;19970;-80
2022/09/10 04:57:07;;;;;;;;;;;;;;;13.56;98.92;96344.59;5042366;28;20404;-80
2022/09/10 04:59:33;;;;;;;;;;;;;;;13.56;99.52;96341.97;5050229;28;20439;-80
2022/09/10 05:02:00;;;;;;;;;;;;;;;13.57;99.25;96348.06;5042484;28;20021;-80
2022/09/10 05:04:26;;;;;;;;;;;;;;;13.56;99.28;96341.97;5043834;28;19961;-80
2022/09/10 05:06:52;;;;;;;;;;;;;;;13.57;99.29;96348.06;5047779;28;19993;-80
2022/09/10 05:09:19;;;;;;;;;;;;;;;13.59;99.33;96353.91;5049942;28;20449;-80
2022/09/10 05:11:45;;;;;;;;;;;;;;;13.59;99.41;96351.25;5039763;28;19971;-80
2022/09/10 05:14:12;;;;;;;;;;;;;;;13.59;99.33;96343.34;5048116;28;19958;-80
2022/09/10 05:16:38;;;;;;;;;;;;;;;13.60;99.40;96348.38;5048818;28;20425;-80
2022/09/10 05:19:05;;;;;;;;;;;;;;;13.60;99.90;96343.09;5044909;28;19968;-80
2022/09/10 05:21:31;;;;;;;;;;;;;;;13.63;99.19;96343.66;5039288;28;19966;-80
2022/09/10 05:23:57;;;;;;;;;;;;;;;13.64;99.80;96355.81;5046478;28;19967;-80
2022/09/10 05:26:23;;;;;;;;;;;;;;;13.63;99.41;96343.66;5048588;28;19996;-80
2022/09/10 05:28:52;;;;;;;;;;;;;;;13.60;98.72;96343.09;5043156;28;19964;-80
2022/09/10 05:31:18;;;;;;;;;;;;;;;13.56;99.57;96351.72;5038537;28;20293;-80
2022/09/10 05:33:45;;;;;;;;;;;;;;;13.53;100.00;96347.75;5046876;28;19962;-80
2022/09/10 05:36:11;;;;;;;;;;;;;;;13.52;98.92;96350.59;5048727;28;20041;-80
2022/09/10 05:38:37;;;;;;;;;;;;;;;13.51;99.35;96346.38;5043338;28;19981;-80
2022/09/10 05:41:05;;;;;;;;;;;;;;;13.51;99.39;96347.19;5043607;28;19972;-80
2022/09/10 05:43:31;;;;;;;;;;;;;;;13.53;100.00;96341.69;5043774;28;19960;-80
2022/09/10 05:45:57;;;;;;;;;;;;;;;13.51;98.52;96349.03;5043914;28;19999;-80
2022/09/10 05:48:23;;;;;;;;;;;;;;;13.53;98.35;96357.47;5051463;28;19965;-81
2022/09/10 05:50:49;;;;;;;;;;;;;;;13.53;100.00;96352.22;5044137;28;19994;-80
2022/09/10 05:53:15;;;;;;;;;;;;;;;13.56;100.00;96354.34;5045399;28;20411;-80
2022/09/10 05:55:42;;;;;;;;;;;;;;;13.59;100.00;96356.53;5042974;28;19963;-80
2022/09/10 05:58:08;;;;;;;;;;;;;;;13.59;99.86;96359.97;5039187;28;19978;-80
2022/09/10 06:00:35;;;;;;;;;;;;;;;13.60;99.30;96352.84;5041527;28;19966;-80
2022/09/10 06:03:01;;;;;;;;;;;;;;;13.65;100.00;96360.84;5049414;28;19970;-80
2022/09/10 06:05:27;;;;;;;;;;;;;;;13.68;100.00;96363.00;5057934;28;19964;-80
2022/09/10 06:07:53;;;;;;;;;;;;;;;13.71;99.68;96356.44;5042781;28;19961;-80
2022/09/10 06:10:19;;;;;;;;;;;;;;;13.74;100.00;96363.88;5047264;28;20482;-80
2022/09/10 06:12:48;;;;;;;;;;;;;;;13.77;100.00;96366.03;5046298;28;20021;-80
2022/09/10 06:15:15;;;;;;;;;;;;;;;13.82;100.00;96355.56;5038074;28;19959;-80
2022/09/10 06:17:41;;;;;;;;;;;;;;;13.85;99.35;96367.47;5043517;28;20458;-80
2022/09/10 06:20:08;;;;;;;;;;;;;;;13.86;99.83;96372.50;5044869;28;19956;-80
2022/09/10 06:22:34;;;;;;;;;;;;;;;13.89;100.00;96376.50;5047166;28;19963;-79
2022/09/10 06:25:00;;;;;;;;;;;;;;;13.90;100.00;96376.25;5041870;28;19957;-80
2022/09/10 06:27:26;;;;;;;;;;;;;;;13.94;100.00;96382.66;5042356;28;20407;-80
2022/09/10 06:29:52;;;;;;;;;;;;;;;13.97;100.00;96384.00;5044247;28;19997;-80
2022/09/10 06:32:17;;;;;;;;;;;;;;;14.01;99.87;96393.03;5061992;28;19966;-80
2022/09/10 06:34:43;;;;;;;;;;;;;;;14.04;100.00;96391.75;5044520;28;20012;-80
2022/09/10 06:37:09;;;;;;;;;;;;;;;14.01;98.04;96393.03;5042276;28;20404;-81
2022/09/10 06:39:35;;;;;;;;;;;;;;;14.00;100.00;96394.84;5048746;28;19971;-80
2022/09/10 06:42:01;;;;;;;;;;;;;;;14.00;98.82;96392.22;5048148;28;20013;-80
2022/09/10 06:44:28;;;;;;;;;;;;;;;14.03;100.00;96398.88;5037390;28;20471;-80
2022/09/10 06:46:54;;;;;;;;;;;;;;;14.04;100.00;96411.00;5045785;28;19969;-80
2022/09/10 06:49:20;;;;;;;;;;;;;;;14.06;98.19;96400.22;5047463;28;20001;-80
2022/09/10 06:51:48;;;;;;;;;;;;;;;14.05;98.30;96396.78;5035174;28;19962;-80
2022/09/10 06:54:13;;;;;;;;;;;;;;;14.05;97.38;96395.97;5046502;28;19962;-80
2022/09/10 06:56:40;;;;;;;;;;;;;;;14.06;98.96;96398.38;5049955;28;19961;-80
2022/09/10 06:59:07;;;;;;;;;;;;;;;14.14;100.00;96397.19;5049353;28;19975;-80
2022/09/10 07:01:33;;;;;;;;;;;;;;;14.24;100.00;96402.59;5045348;28;20412;-80
2022/09/10 07:04:00;;;;;;;;;;;;;;;14.36;97.16;96403.31;5038150;28;19966;-80
2022/09/10 07:06:27;;;;;;;;;;;;;;;14.52;97.69;96401.66;5047743;28;19950;-80
2022/09/10 07:08:54;;;;;;;;;;;;;;;14.88;98.53;96404.78;5042710;28;19961;-80
2022/09/10 07:11:19;;;;;;;;;;;;;;;15.27;94.59;96407.34;5042684;28;19964;-80
2022/09/10 07:13:48;;;;;;;;;;;;;;;15.46;92.25;96407.78;5053534;28;20373;-80
2022/09/10 07:16:16;;;;;;;;;;;;;;;15.46;91.46;96410.44;5046866;28;19963;-80
2022/09/10 07:18:42;;;;;;;;;;;;;;;15.34;91.83;96409.78;5046057;28;19979;-80
2022/09/10 07:21:09;;;;;;;;;;;;;;;15.13;90.89;96414.84;5058132;28;20041;-80
2022/09/10 07:23:36;;;;;;;;;;;;;;;15.01;93.21;96416.81;5048218;28;19978;-80
2022/09/10 07:26:03;;;;;;;;;;;;;;;14.90;93.19;96415.88;5052205;28;19963;-80
2022/09/10 07:28:29;;;;;;;;;;;;;;;14.80;95.49;96419.22;5042402;28;19983;-79
2022/09/10 07:30:54;;;;;;;;;;;;;;;14.74;97.00;96416.75;5048489;28;19964;-79
2022/09/10 07:33:21;;;;;;;;;;;;;;;14.74;96.86;96424.66;5046276;28;19960;-80
2022/09/10 07:35:47;;;;;;;;;;;;;;;14.75;97.85;96418.34;5047141;28;19963;-80
2022/09/10 07:38:13;;;;;;;;;;;;;;;14.92;97.51;96429.66;5049391;28;20499;-80
2022/09/10 07:40:39;;;;;;;;;;;;;;;15.38;96.01;96427.53;5046307;28;19965;-79
2022/09/10 07:43:05;;;;;;;;;;;;;;;15.83;92.84;96431.69;5062745;28;20396;-80
2022/09/10 07:45:31;;;;;;;;;;;;;;;16.24;91.17;96426.69;5043806;28;19957;-80
2022/09/10 07:47:57;;;;;;;;;;;;;;;16.53;88.92;96429.00;5046382;28;19956;-80
2022/09/10 07:50:23;;;;;;;;;;;;;;;16.86;86.49;96420.97;5052121;28;19964;-80
2022/09/10 07:52:49;;;;;;;;;;;;;;;17.07;82.81;96420.00;5050408;28;20424;-79
2022/09/10 07:55:17;;;;;;;;;;;;;;;17.30;83.80;96429.34;5047196;28;19967;-80
2022/09/10 07:57:44;;;;;;;;;;;;;;;17.49;80.96;96419.09;5042177;28;20403;-80
2022/09/10 08:00:14;;;;;;;;;;;;;;;17.48;80.89;96433.38;5049424;28;19954;-80
2022/09/10 08:02:41;;;;;;;;;;;;;;;17.29;78.80;96424.34;5051589;28;19957;-80
2022/09/10 08:05:09;;;;;;;;;;;;;;;17.23;81.14;96432.25;5048101;28;19969;-81
2022/09/10 08:07:35;;;;;;;;;;;;;;;17.19;81.90;96436.47;5047626;28;19957;-80
2022/09/10 08:10:01;;;;;;;;;;;;;;;17.36;79.01;96423.00;5040564;28;19968;-80
2022/09/10 08:12:27;;;;;;;;;;;;;;;17.59;80.22;96424.38;5050127;28;19955;-81
2022/09/10 08:14:55;;;;;;;;;;;;;;;17.82;77.00;96416.97;5048018;28;19973;-80
2022/09/10 08:17:21;;;;;;;;;;;;;;;18.04;78.27;96427.38;5041946;28;20328;-80
2022/09/10 08:19:49;;;;;;;;;;;;;;;18.11;74.74;96419.94;5045171;28;20005;-80
2022/09/10 08:22:15;;;;;;;;;;;;;;;18.08;75.50;96423.13;5042410;28;19962;-81
2022/09/10 08:24:41;;;;;;;;;;;;;;;17.90;74.95;96432.41;5051803;28;19977;-81
2022/09/10 08:27:07;;;;;;;;;;;;;;;17.72;76.94;96443.50;5044022;28;20495;-80
2022/09/10 08:29:33;;;;;;;;;;;;;;;17.49;77.00;96453.56;5045430;28;20439;-80
2022/09/10 08:31:59;;;;;;;;;;;;;;;17.27;76.67;96448.44;5044650;28;19979;-81
2022/09/10 08:34:25;;;;;;;;;;;;;;;17.07;75.26;96438.56;5049134;28;20408;-81
2022/09/10 08:36:52;;;;;;;;;;;;;;;16.95;75.81;96456.53;5049149;28;19967;-80
2022/09/10 08:39:18;;;;;;;;;;;;;;;16.83;79.18;96469.97;5045403;28;19976;-80
2022/09/10 08:41:51;;;;;;;;;;;;;;;16.74;77.05;96464.34;5041219;28;19985;-80
2022/09/10 08:44:23;;;;;;;;;;;;;;;16.64;76.28;96464.28;5045540;28;19962;-81
2022/09/10 08:46:55;;;;;;;;;;;;;;;16.54;76.29;96458.91;5046742;28;20416;-80
2022/09/10 08:49:35;;;;;;;;;;;;;;;16.44;76.46;96464.94;5045170;28;19955;-81
2022/09/10 08:52:16;;;;;;;;;;;;;;;16.38;78.87;96481.88;5045045;28;19952;-81
2022/09/10 08:54:46;;;;;;;;;;;;;;;16.33;76.47;96469.38;5046354;28;19969;-81
2022/09/10 08:57:21;;;;;;;;;;;;;;;16.30;79.75;96484.97;5046162;28;19961;-81
2022/09/10 08:59:51;;;;;;;;;;;;;;;16.20;76.99;96467.16;5048963;28;19963;-81
2022/09/10 09:02:30;;;;;;;;;;;;;;;16.13;79.09;96485.91;5047229;28;19952;-80
2022/09/10 09:04:59;;;;;;;;;;;;;;;16.07;79.88;96483.47;5041303;28;19955;-81
2022/09/10 09:07:30;;;;;;;;;;;;;;;16.02;78.29;96470.97;5045456;28;19960;-81
2022/09/10 09:09:55;;;;;;;;;;;;;;;15.97;79.62;96487.59;5043250;28;20401;-81
2022/09/10 09:12:41;;;;;;;;;;;;;;;15.93;78.84;96470.63;5050372;28;20055;-81
2022/09/10 09:15:10;;;;;;;;;;;;;;;15.88;80.80;96480.38;5049169;28;19956;-81
2022/09/10 09:17:54;;;;;;;;;;;;;;;15.88;79.53;96475.09;5044780;28;19951;-80
2022/09/10 09:20:23;;;;;;;;;;;;;;;15.92;80.35;96474.34;5026983;28;19969;-80
2022/09/10 09:22:51;;;;;;;;;;;;;;;15.98;80.86;96480.44;5044988;28;20320;-81
2022/09/10 09:25:20;;;;;;;;;;;;;;;16.01;80.00;96479.97;5045655;28;19959;-81
2022/09/10 09:27:46;;;;;;;;;;;;;;;16.06;80.30;96479.22;5039778;28;19987;-80
2022/09/10 09:30:12;;;;;;;;;;;;;;;16.11;79.00;96473.97;5049507;28;19957;-80
2022/09/10 09:32:40;;;;;;;;;;;;;;;16.19;80.24;96479.59;5046033;28;20433;-80
2022/09/10 09:35:37;;;;;;;;;;;;;;;16.29;80.31;96478.06;5045533;28;19957;-81
2022/09/10 09:38:06;;;;;;;;;;;;;;;16.38;79.34;96458.84;5035424;28;19966;-81
2022/09/10 09:40:43;;;;;;;;;;;;;;;16.47;80.37;96475.03;5042136;28;19962;-80
2022/09/10 09:43:20;;;;;;;;;;;;;;;16.55;79.76;96471.91;5041186;28;19976;-80
2022/09/10 09:45:46;;;;;;;;;;;;;;;16.60;79.17;96468.50;5047826;28;19959;-81
2022/09/10 09:48:17;;;;;;;;;;;;;;;16.63;78.55;96471.44;5045850;28;19958;-80
2022/09/10 09:50:44;;;;;;;;;;;;;;;16.64;78.13;96461.63;5044310;28;20416;-80
2022/09/10 09:53:15;;;;;;;;;;;;;;;16.62;75.71;96459.22;5040771;28;19959;-81
2022/09/10 09:55:50;;;;;;;;;;;;;;;16.59;76.90;96464.25;5039870;28;19958;-81
2022/09/10 09:58:19;;;;;;;;;;;;;;;16.58;77.83;96473.25;5044092;28;19966;-80
2022/09/10 10:01:05;;;;;;;;;;;;;;;16.59;78.07;96480.94;5043660;28;19960;-81
2022/09/10 10:03:37;;;;;;;;;;;;;;;16.56;77.44;96467.41;5044431;28;20062;-81
2022/09/10 10:06:07;;;;;;;;;;;;;;;16.56;77.39;96472.69;5043431;28;19960;-81
2022/09/10 10:08:36;;;;;;;;;;;;;;;16.56;76.05;96464.75;5043095;28;20345;-81
2022/09/10 10:11:03;;;;;;;;;;;;;;;16.49;75.38;96461.56;5044098;28;19956;-81
2022/09/10 10:13:36;;;;;;;;;;;;;;;16.49;75.23;96464.19;5043811;28;19979;-81
2022/09/10 10:16:16;;;;;;;;;;;;;;;16.49;73.57;96457.03;5043348;28;19957;-81
2022/09/10 10:18:43;;;;;;;;;;;;;;;16.52;75.91;96466.31;5044602;28;19976;-81
2022/09/10 10:21:11;;;;;;;;;;;;;;;16.70;75.53;96459.81;5041734;28;19962;-80
2022/09/10 10:23:37;;;;;;;;;;;;;;;16.97;77.61;96465.03;5045295;28;19959;-81
2022/09/10 10:26:19;;;;;;;;;;;;;;;17.20;75.02;96450.53;5046895;28;19965;-81
2022/09/10 10:29:05;;;;;;;;;;;;;;;17.48;72.10;96427.28;5044757;28;20420;-81
2022/09/10 10:31:33;;;;;;;;;;;;;;;17.67;71.80;96422.28;5043008;28;19968;-81
2022/09/10 10:34:08;;;;;;;;;;;;;;;17.79;70.12;96405.06;5039169;28;19961;-81
2022/09/10 10:36:52;;;;;;;;;;;;;;;17.95;69.30;96405.06;5042826;28;19964;-81
2022/09/10 10:39:20;;;;;;;;;;;;;;;18.17;70.10;96418.09;5041402;28;19973;-80
2022/09/10 10:41:46;;;;;;;;;;;;;;;18.36;67.39;96397.09;5044748;28;20395;-81
2022/09/10 10:44:51;;;;;;;;;;;;;;;18.50;66.84;96392.81;5046565;28;20063;-81
2022/09/10 10:47:24;;;;;;;;;;;;;;;18.77;68.10;96395.13;5009917;28;19956;-81
2022/09/10 10:49:51;;;;;;;;;;;;;;;19.04;63.91;96364.72;5018345;28;19957;-81
2022/09/10 10:52:26;;;;;;;;;;;;;;;19.26;63.54;96354.50;5029604;28;19959;-81
2022/09/10 10:54:52;;;;;;;;;;;;;;;19.37;60.59;96341.16;5029956;28;19964;-80
2022/09/10 10:57:42;;;;;;;;;;;;;;;19.31;63.52;96364.31;5048731;28;19963;-81
2022/09/10 11:00:11;;;;;;;;;;;;;;;19.07;60.76;96340.28;5053315;28;19969;-80
2022/09/10 11:02:53;;;;;;;;;;;;;;;18.81;63.36;96379.44;5052359;28;19957;-81
2022/09/10 11:05:23;;;;;;;;;;;;;;;18.58;64.16;96383.47;5044241;28;19977;-81
2022/09/10 11:07:49;;;;;;;;;;;;;;;18.41;64.70;96386.44;5048884;28;19966;-80
2022/09/10 11:10:20;;;;;;;;;;;;;;;18.26;63.53;96366.03;5051561;28;19958;-80
2022/09/10 11:12:54;;;;;;;;;;;;;;;18.37;67.27;96398.66;5049850;28;20038;-80
2022/09/10 11:15:29;;;;;;;;;;;;;;;18.45;64.54;96374.22;5046056;28;19956;-80
2022/09/10 11:18:15;;;;;;;;;;;;;;;18.53;63.28;96360.41;5050075;28;19961;-81
2022/09/10 11:20:47;;;;;;;;;;;;;;;18.90;65.52;96380.50;5042545;28;20335;-80
2022/09/10 11:23:25;;;;;;;;;;;;;;;19.24;64.26;96364.63;5049616;28;20396;-80
2022/09/10 11:25:54;;;;;;;;;;;;;;;19.57;63.35;96354.31;5044727;28;19972;-81
2022/09/10 11:28:27;;;;;;;;;;;;;;;19.89;60.19;96320.28;5050544;28;19986;-81
2022/09/10 11:30:56;;;;;;;;;;;;;;;20.19;56.76;96297.88;5045337;28;19959;-81
2022/09/10 11:33:27;;;;;;;;;;;;;;;20.57;60.15;96335.28;5049181;28;19962;-81
2022/09/10 11:36:02;;;;;;;;;;;;;;;20.68;56.53;96302.94;5046263;28;19960;-81
2022/09/10 11:38:31;;;;;;;;;;;;;;;20.75;56.58;96296.47;5036802;28;19955;-81
2022/09/10 11:41:03;;;;;;;;;;;;;;;20.87;56.29;96300.28;5046034;28;20450;-81
2022/09/10 11:43:41;;;;;;;;;;;;;;;20.83;55.83;96295.81;5050168;28;19954;-81
2022/09/10 11:46:10;;;;;;;;;;;;;;;20.66;55.46;96307.75;5051827;28;19956;-80
2022/09/10 11:48:40;;;;;;;;;;;;;;;20.52;57.32;96341.47;5054040;28;19962;-81
2022/09/10 11:51:13;;;;;;;;;;;;;;;20.31;56.52;96340.09;5046261;28;19961;-81
2022/09/10 11:53:40;;;;;;;;;;;;;;;20.35;55.23;96328.59;5050719;28;19959;-81
2022/09/10 11:56:21;;;;;;;;;;;;;;;20.26;55.04;96328.44;5047277;28;19976;-81
2022/09/10 11:59:09;;;;;;;;;;;;;;;20.34;54.08;96321.69;5048873;28;19965;-80
2022/09/10 12:01:43;;;;;;;;;;;;;;;20.68;57.12;96334.91;5052196;28;20335;-80
2022/09/10 12:04:21;;;;;;;;;;;;;;;20.77;54.92;96312.97;5043965;28;20366;-81
2022/09/10 12:07:01;;;;;;;;;;;;;;;20.65;55.18;96326.69;5041873;28;19968;-80
2022/09/10 12:09:36;;;;;;;;;;;;;;;20.55;54.13;96316.91;5042730;28;19960;-80
2022/09/10 12:12:12;;;;;;;;;;;;;;;20.67;55.33;96338.66;5050826;28;19977;-81
2022/09/10 12:14:39;;;;;;;;;;;;;;;20.71;55.46;96336.22;5048740;28;19955;-80
2022/09/10 12:17:12;;;;;;;;;;;;;;;20.74;55.76;96335.63;5047396;28;19963;-80
2022/09/10 12:19:44;;;;;;;;;;;;;;;20.79;54.92;96340.09;5046404;28;19968;-80
2022/09/10 12:22:16;;;;;;;;;;;;;;;20.82;57.08;96344.88;5048485;28;19965;-80
2022/09/10 12:24:49;;;;;;;;;;;;;;;20.90;56.31;96338.13;5042039;28;19960;-80
2022/09/10 12:27:17;;;;;;;;;;;;;;;21.11;56.25;96335.97;5045317;28;19978;-80
2022/09/10 12:29:43;;;;;;;;;;;;;;;21.05;52.91;96304.03;5048970;28;19981;-81
2022/09/10 12:32:18;;;;;;;;;;;;;;;21.03;53.54;96313.41;5046513;28;19961;-80
2022/09/10 12:34:48;;;;;;;;;;;;;;;20.74;52.31;96313.53;5040612;28;19962;-81
2022/09/10 12:37:32;;;;;;;;;;;;;;;20.42;53.88;96331.72;5046863;28;19988;-80
2022/09/10 12:40:33;;;;;;;;;;;;;;;20.13;52.83;96323.75;5037021;28;20419;-80
2022/09/10 12:43:19;;;;;;;;;;;;;;;19.88;55.78;96356.72;4988301;28;19957;-80
2022/09/10 12:46:04;;;;;;;;;;;;;;;19.66;54.86;96343.84;5041287;28;19954;-81
2022/09/10 12:48:31;;;;;;;;;;;;;;;19.39;55.25;96354.97;5042219;28;19966;-80
2022/09/10 12:50:59;;;;;;;;;;;;;;;19.18;56.83;96357.75;5048789;28;19957;-80
2022/09/10 12:53:30;;;;;;;;;;;;;;;19.04;58.59;96373.47;5046294;28;19957;-81
2022/09/10 12:56:16;;;;;;;;;;;;;;;18.97;58.55;96380.19;5037587;28;19962;-80